sensor_id;sensor_type;location;lat;lon;timestamp;P1;durP1;ratioP1;P2;durP2;ratioP2
8397;SDS011;4236;54.504;9.588;2023-02-28T00:01:32;12.13;;;11.23;;
8397;SDS011;4236;54.504;9.588;2023-02-28T00:04:00;13.63;;;12.57;;
8397;SDS011;4236;54.504;9.588;2023-02-28T00:06:28;12.53;;;11.93;;
8397;SDS011;4236;54.504;9.588;2023-02-28T00:08:56;12.63;;;11.90;;
8397;SDS011;4236;54.504;9.588;2023-02-28T00:11:25;12.33;;;11.53;;
8397;SDS011;4236;54.504;9.588;2023-02-28T00:13:53;12.93;;;11.90;;
8397;SDS011;4236;54.504;9.588;2023-02-28T00:16:21;11.37;;;10.77;;
8397;SDS011;4236;54.504;9.588;2023-02-28T00:18:49;12.00;;;11.40;;
8397;SDS011;4236;54.504;9.588;2023-02-28T00:21:18;11.73;;;11.03;;
8397;SDS011;4236;54.504;9.588;2023-02-28T00:23:46;13.07;;;12.30;;
8397;SDS011;4236;54.504;9.588;2023-02-28T00:26:15;12.90;;;11.60;;
8397;SDS011;4236;54.504;9.588;2023-02-28T00:28:46;12.57;;;11.67;;
8397;SDS011;4236;54.504;9.588;2023-02-28T00:31:14;13.93;;;13.03;;
8397;SDS011;4236;54.504;9.588;2023-02-28T00:33:42;12.23;;;11.53;;
8397;SDS011;4236;54.504;9.588;2023-02-28T00:36:10;12.97;;;12.10;;
8397;SDS011;4236;54.504;9.588;2023-02-28T00:38:39;12.67;;;11.70;;
8397;SDS011;4236;54.504;9.588;2023-02-28T00:41:08;11.17;;;10.67;;
8397;SDS011;4236;54.504;9.588;2023-02-28T00:43:38;12.53;;;11.90;;
8397;SDS011;4236;54.504;9.588;2023-02-28T00:46:08;14.47;;;13.27;;
8397;SDS011;4236;54.504;9.588;2023-02-28T00:48:36;13.30;;;12.50;;
8397;SDS011;4236;54.504;9.588;2023-02-28T00:51:04;12.67;;;11.97;;
8397;SDS011;4236;54.504;9.588;2023-02-28T00:53:32;12.40;;;11.40;;
8397;SDS011;4236;54.504;9.588;2023-02-28T00:56:00;12.13;;;11.63;;
8397;SDS011;4236;54.504;9.588;2023-02-28T00:58:27;12.33;;;11.63;;
8397;SDS011;4236;54.504;9.588;2023-02-28T01:00:55;13.40;;;12.60;;
8397;SDS011;4236;54.504;9.588;2023-02-28T01:03:25;11.80;;;11.20;;
8397;SDS011;4236;54.504;9.588;2023-02-28T01:05:53;13.87;;;12.87;;
8397;SDS011;4236;54.504;9.588;2023-02-28T01:08:20;11.50;;;10.77;;
8397;SDS011;4236;54.504;9.588;2023-02-28T01:10:49;13.30;;;12.60;;
8397;SDS011;4236;54.504;9.588;2023-02-28T01:13:17;13.93;;;12.73;;
8397;SDS011;4236;54.504;9.588;2023-02-28T01:15:46;14.67;;;13.57;;
8397;SDS011;4236;54.504;9.588;2023-02-28T01:18:17;14.40;;;13.30;;
8397;SDS011;4236;54.504;9.588;2023-02-28T01:20:46;15.40;;;14.30;;
8397;SDS011;4236;54.504;9.588;2023-02-28T01:23:14;15.13;;;13.90;;
8397;SDS011;4236;54.504;9.588;2023-02-28T01:25:41;14.80;;;13.90;;
8397;SDS011;4236;54.504;9.588;2023-02-28T01:28:09;15.33;;;14.00;;
8397;SDS011;4236;54.504;9.588;2023-02-28T01:30:37;15.50;;;14.30;;
8397;SDS011;4236;54.504;9.588;2023-02-28T01:33:05;17.17;;;15.47;;
8397;SDS011;4236;54.504;9.588;2023-02-28T01:35:33;14.90;;;13.47;;
8397;SDS011;4236;54.504;9.588;2023-02-28T01:38:02;15.43;;;14.33;;
8397;SDS011;4236;54.504;9.588;2023-02-28T01:40:47;14.47;;;13.67;;
8397;SDS011;4236;54.504;9.588;2023-02-28T01:43:17;14.60;;;13.50;;
8397;SDS011;4236;54.504;9.588;2023-02-28T01:45:48;15.30;;;14.03;;
8397;SDS011;4236;54.504;9.588;2023-02-28T01:48:15;15.23;;;14.23;;
8397;SDS011;4236;54.504;9.588;2023-02-28T01:50:44;14.77;;;13.77;;
8397;SDS011;4236;54.504;9.588;2023-02-28T01:53:17;14.17;;;13.10;;
8397;SDS011;4236;54.504;9.588;2023-02-28T01:55:49;13.80;;;12.87;;
8397;SDS011;4236;54.504;9.588;2023-02-28T01:58:20;15.17;;;13.93;;
8397;SDS011;4236;54.504;9.588;2023-02-28T02:00:48;14.50;;;13.60;;
8397;SDS011;4236;54.504;9.588;2023-02-28T02:03:17;16.23;;;14.87;;
8397;SDS011;4236;54.504;9.588;2023-02-28T02:05:47;14.87;;;13.73;;
8397;SDS011;4236;54.504;9.588;2023-02-28T02:08:17;19.10;;;17.47;;
8397;SDS011;4236;54.504;9.588;2023-02-28T02:10:48;17.40;;;16.00;;
8397;SDS011;4236;54.504;9.588;2023-02-28T02:13:25;17.77;;;16.40;;
8397;SDS011;4236;54.504;9.588;2023-02-28T02:16:08;14.57;;;13.77;;
8397;SDS011;4236;54.504;9.588;2023-02-28T02:18:46;15.83;;;14.53;;
8397;SDS011;4236;54.504;9.588;2023-02-28T02:21:24;16.97;;;15.47;;
8397;SDS011;4236;54.504;9.588;2023-02-28T02:27:17;15.37;;;14.23;;
8397;SDS011;4236;54.504;9.588;2023-02-28T02:29:56;17.00;;;15.70;;
8397;SDS011;4236;54.504;9.588;2023-02-28T02:32:55;16.83;;;15.43;;
8397;SDS011;4236;54.504;9.588;2023-02-28T02:35:32;16.20;;;15.00;;
8397;SDS011;4236;54.504;9.588;2023-02-28T02:38:08;16.13;;;14.93;;
8397;SDS011;4236;54.504;9.588;2023-02-28T02:40:42;16.10;;;15.10;;
8397;SDS011;4236;54.504;9.588;2023-02-28T02:43:15;16.47;;;15.17;;
8397;SDS011;4236;54.504;9.588;2023-02-28T02:45:47;15.57;;;14.37;;
8397;SDS011;4236;54.504;9.588;2023-02-28T02:48:21;16.93;;;15.50;;
8397;SDS011;4236;54.504;9.588;2023-02-28T02:50:55;17.53;;;16.13;;
8397;SDS011;4236;54.504;9.588;2023-02-28T02:53:27;18.50;;;16.70;;
8397;SDS011;4236;54.504;9.588;2023-02-28T02:56:00;18.17;;;16.50;;
8397;SDS011;4236;54.504;9.588;2023-02-28T02:58:31;17.80;;;16.60;;
8397;SDS011;4236;54.504;9.588;2023-02-28T03:01:06;18.40;;;16.87;;
8397;SDS011;4236;54.504;9.588;2023-02-28T03:03:36;17.70;;;16.00;;
8397;SDS011;4236;54.504;9.588;2023-02-28T03:06:06;16.57;;;15.43;;
8397;SDS011;4236;54.504;9.588;2023-02-28T03:08:35;18.67;;;17.17;;
8397;SDS011;4236;54.504;9.588;2023-02-28T03:11:04;18.43;;;17.13;;
8397;SDS011;4236;54.504;9.588;2023-02-28T03:13:50;18.70;;;17.30;;
8397;SDS011;4236;54.504;9.588;2023-02-28T03:16:29;18.73;;;17.23;;
8397;SDS011;4236;54.504;9.588;2023-02-28T03:19:12;17.83;;;16.17;;
8397;SDS011;4236;54.504;9.588;2023-02-28T03:21:58;17.60;;;16.40;;
8397;SDS011;4236;54.504;9.588;2023-02-28T03:24:37;18.20;;;16.53;;
8397;SDS011;4236;54.504;9.588;2023-02-28T03:27:15;18.17;;;16.83;;
8397;SDS011;4236;54.504;9.588;2023-02-28T03:29:47;18.63;;;17.23;;
8397;SDS011;4236;54.504;9.588;2023-02-28T03:32:21;18.60;;;17.30;;
8397;SDS011;4236;54.504;9.588;2023-02-28T03:34:56;19.30;;;17.67;;
8397;SDS011;4236;54.504;9.588;2023-02-28T03:37:31;17.43;;;16.13;;
8397;SDS011;4236;54.504;9.588;2023-02-28T03:40:03;19.13;;;17.30;;
8397;SDS011;4236;54.504;9.588;2023-02-28T03:42:35;18.80;;;17.40;;
8397;SDS011;4236;54.504;9.588;2023-02-28T03:45:08;17.77;;;16.47;;
8397;SDS011;4236;54.504;9.588;2023-02-28T03:47:40;19.00;;;17.50;;
8397;SDS011;4236;54.504;9.588;2023-02-28T03:50:14;18.77;;;17.50;;
8397;SDS011;4236;54.504;9.588;2023-02-28T03:52:48;19.10;;;17.80;;
8397;SDS011;4236;54.504;9.588;2023-02-28T03:55:18;18.50;;;17.00;;
8397;SDS011;4236;54.504;9.588;2023-02-28T03:57:51;19.10;;;17.70;;
8397;SDS011;4236;54.504;9.588;2023-02-28T04:00:25;20.70;;;19.23;;
8397;SDS011;4236;54.504;9.588;2023-02-28T04:02:56;19.77;;;18.37;;
8397;SDS011;4236;54.504;9.588;2023-02-28T04:05:24;20.73;;;19.07;;
8397;SDS011;4236;54.504;9.588;2023-02-28T04:07:53;19.13;;;17.63;;
8397;SDS011;4236;54.504;9.588;2023-02-28T04:10:21;20.73;;;19.20;;
8397;SDS011;4236;54.504;9.588;2023-02-28T04:12:49;20.80;;;19.10;;
8397;SDS011;4236;54.504;9.588;2023-02-28T04:15:17;18.60;;;17.30;;
8397;SDS011;4236;54.504;9.588;2023-02-28T04:17:50;20.10;;;18.60;;
8397;SDS011;4236;54.504;9.588;2023-02-28T04:20:18;19.10;;;17.80;;
8397;SDS011;4236;54.504;9.588;2023-02-28T04:22:46;20.13;;;18.47;;
8397;SDS011;4236;54.504;9.588;2023-02-28T04:25:15;18.77;;;17.57;;
8397;SDS011;4236;54.504;9.588;2023-02-28T04:27:43;19.50;;;18.10;;
8397;SDS011;4236;54.504;9.588;2023-02-28T04:30:11;20.07;;;18.47;;
8397;SDS011;4236;54.504;9.588;2023-02-28T04:32:39;20.57;;;19.10;;
8397;SDS011;4236;54.504;9.588;2023-02-28T04:35:07;19.70;;;18.60;;
8397;SDS011;4236;54.504;9.588;2023-02-28T04:37:37;19.83;;;18.43;;
8397;SDS011;4236;54.504;9.588;2023-02-28T04:40:06;21.10;;;19.50;;
8397;SDS011;4236;54.504;9.588;2023-02-28T04:42:35;21.47;;;19.87;;
8397;SDS011;4236;54.504;9.588;2023-02-28T04:45:03;20.93;;;19.20;;
8397;SDS011;4236;54.504;9.588;2023-02-28T04:47:32;23.30;;;21.80;;
8397;SDS011;4236;54.504;9.588;2023-02-28T04:49:59;23.07;;;21.20;;
8397;SDS011;4236;54.504;9.588;2023-02-28T04:52:27;22.20;;;20.60;;
8397;SDS011;4236;54.504;9.588;2023-02-28T04:54:55;21.30;;;19.90;;
8397;SDS011;4236;54.504;9.588;2023-02-28T04:57:22;21.60;;;20.00;;
8397;SDS011;4236;54.504;9.588;2023-02-28T04:59:51;22.70;;;21.07;;
8397;SDS011;4236;54.504;9.588;2023-02-28T05:02:19;22.83;;;21.23;;
8397;SDS011;4236;54.504;9.588;2023-02-28T05:04:47;20.67;;;19.17;;
8397;SDS011;4236;54.504;9.588;2023-02-28T05:07:15;20.40;;;18.80;;
8397;SDS011;4236;54.504;9.588;2023-02-28T05:09:42;22.63;;;20.70;;
8397;SDS011;4236;54.504;9.588;2023-02-28T05:12:10;22.40;;;20.80;;
8397;SDS011;4236;54.504;9.588;2023-02-28T05:14:38;23.17;;;21.03;;
8397;SDS011;4236;54.504;9.588;2023-02-28T05:17:07;22.17;;;20.40;;
8397;SDS011;4236;54.504;9.588;2023-02-28T05:19:36;23.27;;;21.27;;
8397;SDS011;4236;54.504;9.588;2023-02-28T05:22:03;23.63;;;21.87;;
8397;SDS011;4236;54.504;9.588;2023-02-28T05:24:31;22.67;;;21.17;;
8397;SDS011;4236;54.504;9.588;2023-02-28T05:26:59;23.90;;;22.20;;
8397;SDS011;4236;54.504;9.588;2023-02-28T05:29:27;23.17;;;21.47;;
8397;SDS011;4236;54.504;9.588;2023-02-28T05:31:55;23.80;;;22.00;;
8397;SDS011;4236;54.504;9.588;2023-02-28T05:34:24;23.60;;;21.57;;
8397;SDS011;4236;54.504;9.588;2023-02-28T05:36:51;23.80;;;21.93;;
8397;SDS011;4236;54.504;9.588;2023-02-28T05:39:19;24.50;;;22.73;;
8397;SDS011;4236;54.504;9.588;2023-02-28T05:41:48;23.00;;;21.40;;
8397;SDS011;4236;54.504;9.588;2023-02-28T05:44:15;23.53;;;21.87;;
8397;SDS011;4236;54.504;9.588;2023-02-28T05:46:43;25.03;;;22.93;;
8397;SDS011;4236;54.504;9.588;2023-02-28T05:49:10;25.37;;;23.33;;
8397;SDS011;4236;54.504;9.588;2023-02-28T05:51:39;24.97;;;22.90;;
8397;SDS011;4236;54.504;9.588;2023-02-28T05:54:07;25.70;;;23.60;;
8397;SDS011;4236;54.504;9.588;2023-02-28T05:56:37;25.50;;;23.30;;
8397;SDS011;4236;54.504;9.588;2023-02-28T05:59:06;23.77;;;22.10;;
8397;SDS011;4236;54.504;9.588;2023-02-28T06:01:34;24.23;;;22.33;;
8397;SDS011;4236;54.504;9.588;2023-02-28T06:04:04;25.87;;;23.87;;
8397;SDS011;4236;54.504;9.588;2023-02-28T06:06:37;24.33;;;22.40;;
8397;SDS011;4236;54.504;9.588;2023-02-28T06:09:06;25.93;;;23.73;;
8397;SDS011;4236;54.504;9.588;2023-02-28T06:11:34;27.00;;;24.80;;
8397;SDS011;4236;54.504;9.588;2023-02-28T06:14:04;25.33;;;23.50;;
8397;SDS011;4236;54.504;9.588;2023-02-28T06:16:33;27.10;;;24.73;;
8397;SDS011;4236;54.504;9.588;2023-02-28T06:19:03;30.13;;;27.73;;
8397;SDS011;4236;54.504;9.588;2023-02-28T06:21:31;31.03;;;28.33;;
8397;SDS011;4236;54.504;9.588;2023-02-28T06:23:59;31.80;;;29.10;;
8397;SDS011;4236;54.504;9.588;2023-02-28T06:26:29;28.40;;;26.20;;
8397;SDS011;4236;54.504;9.588;2023-02-28T06:28:57;26.20;;;23.87;;
8397;SDS011;4236;54.504;9.588;2023-02-28T06:31:24;34.20;;;31.03;;
8397;SDS011;4236;54.504;9.588;2023-02-28T06:33:53;36.77;;;33.00;;
8397;SDS011;4236;54.504;9.588;2023-02-28T06:36:20;41.00;;;34.77;;
8397;SDS011;4236;54.504;9.588;2023-02-28T06:38:48;37.30;;;33.50;;
8397;SDS011;4236;54.504;9.588;2023-02-28T06:41:22;33.47;;;30.07;;
8397;SDS011;4236;54.504;9.588;2023-02-28T06:43:52;30.30;;;27.57;;
8397;SDS011;4236;54.504;9.588;2023-02-28T06:46:20;28.60;;;26.37;;
8397;SDS011;4236;54.504;9.588;2023-02-28T06:48:48;28.53;;;26.23;;
8397;SDS011;4236;54.504;9.588;2023-02-28T06:51:17;28.90;;;26.80;;
8397;SDS011;4236;54.504;9.588;2023-02-28T06:53:48;29.60;;;27.30;;
8397;SDS011;4236;54.504;9.588;2023-02-28T06:56:17;29.00;;;27.10;;
8397;SDS011;4236;54.504;9.588;2023-02-28T06:58:47;28.33;;;26.37;;
8397;SDS011;4236;54.504;9.588;2023-02-28T07:01:17;30.73;;;28.17;;
8397;SDS011;4236;54.504;9.588;2023-02-28T07:03:46;27.97;;;25.97;;
8397;SDS011;4236;54.504;9.588;2023-02-28T07:06:18;29.10;;;27.00;;
8397;SDS011;4236;54.504;9.588;2023-02-28T07:08:45;29.20;;;26.67;;
8397;SDS011;4236;54.504;9.588;2023-02-28T07:11:13;30.00;;;27.80;;
8397;SDS011;4236;54.504;9.588;2023-02-28T07:13:41;29.23;;;26.93;;
8397;SDS011;4236;54.504;9.588;2023-02-28T07:16:09;28.90;;;26.70;;
8397;SDS011;4236;54.504;9.588;2023-02-28T07:18:39;30.47;;;28.10;;
8397;SDS011;4236;54.504;9.588;2023-02-28T07:21:08;30.87;;;28.90;;
8397;SDS011;4236;54.504;9.588;2023-02-28T07:23:37;32.30;;;30.20;;
8397;SDS011;4236;54.504;9.588;2023-02-28T07:26:06;32.87;;;30.60;;
8397;SDS011;4236;54.504;9.588;2023-02-28T07:28:37;31.47;;;29.13;;
8397;SDS011;4236;54.504;9.588;2023-02-28T07:31:05;31.60;;;29.40;;
8397;SDS011;4236;54.504;9.588;2023-02-28T07:33:33;30.70;;;28.80;;
8397;SDS011;4236;54.504;9.588;2023-02-28T07:36:03;34.20;;;31.40;;
8397;SDS011;4236;54.504;9.588;2023-02-28T07:38:33;31.10;;;29.03;;
8397;SDS011;4236;54.504;9.588;2023-02-28T07:41:01;30.33;;;28.33;;
8397;SDS011;4236;54.504;9.588;2023-02-28T07:43:30;28.90;;;27.10;;
8397;SDS011;4236;54.504;9.588;2023-02-28T07:46:01;29.40;;;27.40;;
8397;SDS011;4236;54.504;9.588;2023-02-28T07:48:29;31.43;;;29.27;;
8397;SDS011;4236;54.504;9.588;2023-02-28T07:50:58;32.07;;;29.87;;
8397;SDS011;4236;54.504;9.588;2023-02-28T07:53:28;29.37;;;27.40;;
8397;SDS011;4236;54.504;9.588;2023-02-28T07:55:56;31.13;;;28.90;;
8397;SDS011;4236;54.504;9.588;2023-02-28T07:58:24;29.40;;;27.57;;
8397;SDS011;4236;54.504;9.588;2023-02-28T08:00:53;30.73;;;28.83;;
8397;SDS011;4236;54.504;9.588;2023-02-28T08:03:21;29.73;;;27.70;;
8397;SDS011;4236;54.504;9.588;2023-02-28T08:05:50;30.50;;;28.30;;
8397;SDS011;4236;54.504;9.588;2023-02-28T08:08:18;30.60;;;28.50;;
8397;SDS011;4236;54.504;9.588;2023-02-28T08:10:47;31.73;;;29.37;;
8397;SDS011;4236;54.504;9.588;2023-02-28T08:13:15;30.87;;;28.87;;
8397;SDS011;4236;54.504;9.588;2023-02-28T08:15:43;31.00;;;28.10;;
8397;SDS011;4236;54.504;9.588;2023-02-28T08:18:11;31.20;;;28.77;;
8397;SDS011;4236;54.504;9.588;2023-02-28T08:20:39;28.73;;;26.77;;
8397;SDS011;4236;54.504;9.588;2023-02-28T08:23:06;30.90;;;28.70;;
8397;SDS011;4236;54.504;9.588;2023-02-28T08:25:34;28.37;;;26.57;;
8397;SDS011;4236;54.504;9.588;2023-02-28T08:28:03;27.47;;;25.67;;
8397;SDS011;4236;54.504;9.588;2023-02-28T08:30:31;28.43;;;26.53;;
8397;SDS011;4236;54.504;9.588;2023-02-28T08:32:59;28.13;;;26.13;;
8397;SDS011;4236;54.504;9.588;2023-02-28T08:35:27;27.87;;;26.00;;
8397;SDS011;4236;54.504;9.588;2023-02-28T08:37:55;29.53;;;26.90;;
8397;SDS011;4236;54.504;9.588;2023-02-28T08:40:23;28.77;;;26.73;;
8397;SDS011;4236;54.504;9.588;2023-02-28T08:42:51;28.73;;;26.73;;
8397;SDS011;4236;54.504;9.588;2023-02-28T08:45:20;27.70;;;25.80;;
8397;SDS011;4236;54.504;9.588;2023-02-28T08:47:48;28.20;;;26.10;;
8397;SDS011;4236;54.504;9.588;2023-02-28T08:50:18;27.33;;;25.47;;
8397;SDS011;4236;54.504;9.588;2023-02-28T08:52:46;27.90;;;26.00;;
8397;SDS011;4236;54.504;9.588;2023-02-28T08:55:13;26.37;;;24.33;;
8397;SDS011;4236;54.504;9.588;2023-02-28T08:57:41;27.90;;;25.60;;
8397;SDS011;4236;54.504;9.588;2023-02-28T09:00:09;26.43;;;24.17;;
8397;SDS011;4236;54.504;9.588;2023-02-28T09:02:41;26.40;;;24.17;;
8397;SDS011;4236;54.504;9.588;2023-02-28T09:05:09;25.27;;;23.47;;
8397;SDS011;4236;54.504;9.588;2023-02-28T09:07:37;24.63;;;22.73;;
8397;SDS011;4236;54.504;9.588;2023-02-28T09:10:05;26.17;;;24.10;;
8397;SDS011;4236;54.504;9.588;2023-02-28T09:12:34;25.67;;;23.20;;
8397;SDS011;4236;54.504;9.588;2023-02-28T09:15:02;24.13;;;22.00;;
8397;SDS011;4236;54.504;9.588;2023-02-28T09:17:30;22.43;;;20.63;;
8397;SDS011;4236;54.504;9.588;2023-02-28T09:19:59;22.87;;;20.87;;
8397;SDS011;4236;54.504;9.588;2023-02-28T09:22:27;23.57;;;21.50;;
8397;SDS011;4236;54.504;9.588;2023-02-28T09:24:54;22.53;;;20.93;;
8397;SDS011;4236;54.504;9.588;2023-02-28T09:27:22;22.33;;;20.53;;
8397;SDS011;4236;54.504;9.588;2023-02-28T09:29:50;21.33;;;19.50;;
8397;SDS011;4236;54.504;9.588;2023-02-28T09:32:18;20.27;;;18.87;;
8397;SDS011;4236;54.504;9.588;2023-02-28T09:34:46;19.80;;;18.40;;
8397;SDS011;4236;54.504;9.588;2023-02-28T09:37:15;19.40;;;17.80;;
8397;SDS011;4236;54.504;9.588;2023-02-28T09:39:42;18.20;;;16.80;;
8397;SDS011;4236;54.504;9.588;2023-02-28T09:42:12;19.40;;;17.70;;
8397;SDS011;4236;54.504;9.588;2023-02-28T09:44:48;18.20;;;16.80;;
8397;SDS011;4236;54.504;9.588;2023-02-28T09:47:18;19.70;;;18.00;;
8397;SDS011;4236;54.504;9.588;2023-02-28T09:49:54;17.83;;;16.43;;
8397;SDS011;4236;54.504;9.588;2023-02-28T09:52:29;17.03;;;15.80;;
8397;SDS011;4236;54.504;9.588;2023-02-28T09:55:00;16.00;;;15.07;;
8397;SDS011;4236;54.504;9.588;2023-02-28T09:57:43;16.30;;;15.00;;
8397;SDS011;4236;54.504;9.588;2023-02-28T10:00:13;17.80;;;16.70;;
8397;SDS011;4236;54.504;9.588;2023-02-28T10:05:51;18.03;;;16.53;;
8397;SDS011;4236;54.504;9.588;2023-02-28T10:08:23;19.00;;;17.30;;
8397;SDS011;4236;54.504;9.588;2023-02-28T10:10:55;18.27;;;17.10;;
8397;SDS011;4236;54.504;9.588;2023-02-28T10:13:26;17.57;;;16.33;;
8397;SDS011;4236;54.504;9.588;2023-02-28T10:16:03;18.40;;;17.30;;
8397;SDS011;4236;54.504;9.588;2023-02-28T10:18:39;18.10;;;16.80;;
8397;SDS011;4236;54.504;9.588;2023-02-28T10:21:13;19.50;;;18.10;;
8397;SDS011;4236;54.504;9.588;2023-02-28T10:23:47;18.70;;;17.50;;
8397;SDS011;4236;54.504;9.588;2023-02-28T10:26:17;19.37;;;17.90;;
8397;SDS011;4236;54.504;9.588;2023-02-28T10:28:45;18.50;;;17.00;;
8397;SDS011;4236;54.504;9.588;2023-02-28T10:31:14;19.47;;;18.27;;
8397;SDS011;4236;54.504;9.588;2023-02-28T10:33:45;17.30;;;16.30;;
8397;SDS011;4236;54.504;9.588;2023-02-28T10:36:13;20.00;;;18.70;;
8397;SDS011;4236;54.504;9.588;2023-02-28T10:38:44;19.60;;;17.90;;
8397;SDS011;4236;54.504;9.588;2023-02-28T10:41:14;18.93;;;17.63;;
8397;SDS011;4236;54.504;9.588;2023-02-28T10:43:44;18.53;;;17.23;;
8397;SDS011;4236;54.504;9.588;2023-02-28T10:46:13;20.97;;;19.00;;
8397;SDS011;4236;54.504;9.588;2023-02-28T10:49:00;21.43;;;20.00;;
8397;SDS011;4236;54.504;9.588;2023-02-28T10:51:34;19.13;;;17.93;;
8397;SDS011;4236;54.504;9.588;2023-02-28T10:54:05;17.43;;;16.33;;
8397;SDS011;4236;54.504;9.588;2023-02-28T10:56:34;18.03;;;16.83;;
8397;SDS011;4236;54.504;9.588;2023-02-28T10:59:02;17.37;;;16.37;;
8397;SDS011;4236;54.504;9.588;2023-02-28T11:01:48;19.77;;;17.90;;
8397;SDS011;4236;54.504;9.588;2023-02-28T11:04:19;18.47;;;17.17;;
8397;SDS011;4236;54.504;9.588;2023-02-28T11:07:02;19.73;;;18.13;;
8397;SDS011;4236;54.504;9.588;2023-02-28T11:09:32;18.37;;;17.10;;
8397;SDS011;4236;54.504;9.588;2023-02-28T11:12:03;20.37;;;18.77;;
8397;SDS011;4236;54.504;9.588;2023-02-28T11:14:34;19.10;;;17.90;;
8397;SDS011;4236;54.504;9.588;2023-02-28T11:17:11;17.23;;;16.40;;
8397;SDS011;4236;54.504;9.588;2023-02-28T11:19:44;17.90;;;16.70;;
8397;SDS011;4236;54.504;9.588;2023-02-28T11:22:16;16.73;;;15.63;;
8397;SDS011;4236;54.504;9.588;2023-02-28T11:24:47;13.93;;;13.23;;
8397;SDS011;4236;54.504;9.588;2023-02-28T11:27:40;14.63;;;13.80;;
8397;SDS011;4236;54.504;9.588;2023-02-28T11:30:23;14.57;;;13.67;;
8397;SDS011;4236;54.504;9.588;2023-02-28T11:32:52;11.87;;;11.20;;
8397;SDS011;4236;54.504;9.588;2023-02-28T11:35:21;13.43;;;12.63;;
8397;SDS011;4236;54.504;9.588;2023-02-28T11:37:53;13.47;;;12.57;;
8397;SDS011;4236;54.504;9.588;2023-02-28T11:40:23;13.40;;;12.40;;
8397;SDS011;4236;54.504;9.588;2023-02-28T11:43:00;12.83;;;12.03;;
8397;SDS011;4236;54.504;9.588;2023-02-28T11:45:36;14.13;;;13.13;;
8397;SDS011;4236;54.504;9.588;2023-02-28T11:48:14;14.60;;;13.60;;
8397;SDS011;4236;54.504;9.588;2023-02-28T11:50:51;13.60;;;12.70;;
8397;SDS011;4236;54.504;9.588;2023-02-28T11:53:30;14.40;;;13.40;;
8397;SDS011;4236;54.504;9.588;2023-02-28T11:56:18;15.37;;;13.90;;
8397;SDS011;4236;54.504;9.588;2023-02-28T11:59:01;14.70;;;13.53;;
8397;SDS011;4236;54.504;9.588;2023-02-28T12:01:58;14.00;;;12.83;;
8397;SDS011;4236;54.504;9.588;2023-02-28T12:04:40;16.23;;;13.47;;
8397;SDS011;4236;54.504;9.588;2023-02-28T12:07:20;15.33;;;14.00;;
8397;SDS011;4236;54.504;9.588;2023-02-28T12:09:58;13.10;;;12.20;;
8397;SDS011;4236;54.504;9.588;2023-02-28T12:12:38;12.53;;;11.47;;
8397;SDS011;4236;54.504;9.588;2023-02-28T12:15:16;14.20;;;13.10;;
8397;SDS011;4236;54.504;9.588;2023-02-28T12:18:00;12.00;;;11.13;;
8397;SDS011;4236;54.504;9.588;2023-02-28T12:20:55;14.30;;;13.23;;
8397;SDS011;4236;54.504;9.588;2023-02-28T12:23:41;13.70;;;12.53;;
8397;SDS011;4236;54.504;9.588;2023-02-28T12:26:18;15.37;;;14.07;;
8397;SDS011;4236;54.504;9.588;2023-02-28T12:28:51;14.30;;;13.30;;
8397;SDS011;4236;54.504;9.588;2023-02-28T12:31:27;14.53;;;13.40;;
8397;SDS011;4236;54.504;9.588;2023-02-28T12:33:59;14.00;;;12.80;;
8397;SDS011;4236;54.504;9.588;2023-02-28T12:36:30;14.00;;;13.00;;
8397;SDS011;4236;54.504;9.588;2023-02-28T12:38:59;12.90;;;12.00;;
8397;SDS011;4236;54.504;9.588;2023-02-28T12:41:33;12.67;;;11.80;;
8397;SDS011;4236;54.504;9.588;2023-02-28T12:44:08;14.13;;;12.93;;
8397;SDS011;4236;54.504;9.588;2023-02-28T12:46:41;13.90;;;12.90;;
8397;SDS011;4236;54.504;9.588;2023-02-28T12:49:13;14.43;;;13.00;;
8397;SDS011;4236;54.504;9.588;2023-02-28T12:51:44;11.87;;;10.97;;
8397;SDS011;4236;54.504;9.588;2023-02-28T12:54:16;13.03;;;11.90;;
8397;SDS011;4236;54.504;9.588;2023-02-28T12:56:53;13.23;;;12.17;;
8397;SDS011;4236;54.504;9.588;2023-02-28T12:59:32;13.63;;;12.47;;
8397;SDS011;4236;54.504;9.588;2023-02-28T13:05:41;15.00;;;13.57;;
8397;SDS011;4236;54.504;9.588;2023-02-28T13:11:24;13.80;;;12.80;;
8397;SDS011;4236;54.504;9.588;2023-02-28T13:13:58;14.00;;;12.80;;
8397;SDS011;4236;54.504;9.588;2023-02-28T13:16:31;12.70;;;11.50;;
8397;SDS011;4236;54.504;9.588;2023-02-28T13:19:18;12.37;;;11.20;;
8397;SDS011;4236;54.504;9.588;2023-02-28T13:21:50;14.27;;;13.17;;
8397;SDS011;4236;54.504;9.588;2023-02-28T13:30:00;13.53;;;12.27;;
8397;SDS011;4236;54.504;9.588;2023-02-28T13:32:51;12.00;;;11.10;;
8397;SDS011;4236;54.504;9.588;2023-02-28T13:36:01;11.63;;;10.60;;
8397;SDS011;4236;54.504;9.588;2023-02-28T13:38:36;11.17;;;10.20;;
8397;SDS011;4236;54.504;9.588;2023-02-28T13:44:12;12.80;;;11.73;;
8397;SDS011;4236;54.504;9.588;2023-02-28T13:49:49;12.13;;;11.13;;
8397;SDS011;4236;54.504;9.588;2023-02-28T13:52:18;12.43;;;11.33;;
8397;SDS011;4236;54.504;9.588;2023-02-28T13:57:55;12.43;;;11.40;;
8397;SDS011;4236;54.504;9.588;2023-02-28T14:00:39;11.93;;;10.83;;
8397;SDS011;4236;54.504;9.588;2023-02-28T14:03:28;12.70;;;11.40;;
8397;SDS011;4236;54.504;9.588;2023-02-28T14:06:21;12.90;;;11.90;;
8397;SDS011;4236;54.504;9.588;2023-02-28T14:08:54;12.07;;;11.03;;
8397;SDS011;4236;54.504;9.588;2023-02-28T14:11:29;11.87;;;10.77;;
8397;SDS011;4236;54.504;9.588;2023-02-28T14:13:59;11.47;;;10.57;;
8397;SDS011;4236;54.504;9.588;2023-02-28T14:16:34;11.87;;;10.97;;
8397;SDS011;4236;54.504;9.588;2023-02-28T14:19:09;11.37;;;10.37;;
8397;SDS011;4236;54.504;9.588;2023-02-28T14:21:46;10.87;;;9.90;;
8397;SDS011;4236;54.504;9.588;2023-02-28T14:24:40;12.47;;;11.40;;
8397;SDS011;4236;54.504;9.588;2023-02-28T14:27:23;11.50;;;10.60;;
8397;SDS011;4236;54.504;9.588;2023-02-28T14:33:05;10.63;;;9.83;;
8397;SDS011;4236;54.504;9.588;2023-02-28T14:35:55;11.03;;;10.13;;
8397;SDS011;4236;54.504;9.588;2023-02-28T14:38:32;10.60;;;9.80;;
8397;SDS011;4236;54.504;9.588;2023-02-28T14:41:03;11.43;;;10.43;;
8397;SDS011;4236;54.504;9.588;2023-02-28T14:43:34;11.23;;;10.23;;
8397;SDS011;4236;54.504;9.588;2023-02-28T14:46:02;11.53;;;10.47;;
8397;SDS011;4236;54.504;9.588;2023-02-28T14:48:33;12.17;;;11.10;;
8397;SDS011;4236;54.504;9.588;2023-02-28T14:51:02;12.37;;;11.27;;
8397;SDS011;4236;54.504;9.588;2023-02-28T14:53:36;12.33;;;11.23;;
8397;SDS011;4236;54.504;9.588;2023-02-28T14:56:05;13.40;;;12.00;;
8397;SDS011;4236;54.504;9.588;2023-02-28T14:58:34;12.43;;;11.43;;
8397;SDS011;4236;54.504;9.588;2023-02-28T15:01:02;12.53;;;11.23;;
8397;SDS011;4236;54.504;9.588;2023-02-28T15:03:32;12.20;;;11.00;;
8397;SDS011;4236;54.504;9.588;2023-02-28T15:06:01;11.70;;;10.70;;
8397;SDS011;4236;54.504;9.588;2023-02-28T15:08:32;11.10;;;10.33;;
8397;SDS011;4236;54.504;9.588;2023-02-28T15:11:03;11.07;;;10.23;;
8397;SDS011;4236;54.504;9.588;2023-02-28T15:13:35;11.40;;;10.30;;
8397;SDS011;4236;54.504;9.588;2023-02-28T15:16:05;11.37;;;10.47;;
8397;SDS011;4236;54.504;9.588;2023-02-28T15:18:40;10.93;;;10.03;;
8397;SDS011;4236;54.504;9.588;2023-02-28T15:21:14;11.40;;;10.33;;
8397;SDS011;4236;54.504;9.588;2023-02-28T15:23:46;11.43;;;10.50;;
8397;SDS011;4236;54.504;9.588;2023-02-28T15:26:20;11.60;;;10.50;;
8397;SDS011;4236;54.504;9.588;2023-02-28T15:28:51;15.77;;;14.37;;
8397;SDS011;4236;54.504;9.588;2023-02-28T15:31:26;13.13;;;12.03;;
8397;SDS011;4236;54.504;9.588;2023-02-28T15:34:21;20.50;;;16.30;;
8397;SDS011;4236;54.504;9.588;2023-02-28T15:37:06;12.17;;;11.07;;
8397;SDS011;4236;54.504;9.588;2023-02-28T15:39:53;13.50;;;12.27;;
8397;SDS011;4236;54.504;9.588;2023-02-28T15:42:27;13.57;;;12.33;;
8397;SDS011;4236;54.504;9.588;2023-02-28T15:44:57;13.10;;;11.80;;
8397;SDS011;4236;54.504;9.588;2023-02-28T15:47:26;13.93;;;12.70;;